Time;durP1;ratioP1;P1;durP2;ratioP2;P2;SDS_P1;SDS_P2;PMS_P1;PMS_P2;Temp;Humidity;BMP_temperature;BMP_pressure;BME280_temperature;BME280_humidity;BME280_pressure;Samples;Min_cycle;Max_cycle;Signal;HPM_P1;HPM_P2
2023/02/05 00:02:19;;;;;;;17.53;9.20;;;4.30;99.90;;;5.16;100.00;100164.34;5041900;28;20537;-80
2023/02/05 00:04:49;;;;;;;23.23;10.67;;;4.40;99.90;;;5.16;100.00;100162.59;5043071;28;20500;-80
2023/02/05 00:07:20;;;;;;;20.90;9.30;;;4.40;99.90;;;5.13;100.00;100152.44;5037463;28;20527;-80
2023/02/05 00:09:51;;;;;;;21.33;9.77;;;4.30;99.90;;;5.16;100.00;100156.59;5041853;28;20485;-80
2023/02/05 00:12:22;;;;;;;17.50;8.97;;;4.40;99.90;;;5.18;100.00;100160.72;5045177;28;21003;-80
2023/02/05 00:14:52;;;;;;;27.27;9.83;;;4.40;99.90;;;5.21;100.00;100159.69;5044791;28;20474;-80
2023/02/05 00:17:21;;;;;;;19.87;9.93;;;4.40;99.90;;;5.21;100.00;100154.50;5046155;28;20499;-80
2023/02/05 00:19:51;;;;;;;19.50;9.20;;;4.40;99.90;;;5.21;100.00;100150.16;5045589;28;20473;-80
2023/02/05 00:22:20;;;;;;;18.10;9.50;;;4.40;99.90;;;5.22;100.00;100145.78;5044281;28;20893;-80
2023/02/05 00:24:52;;;;;;;24.40;10.13;;;4.40;99.90;;;5.21;100.00;100139.78;5043053;28;20575;-80
2023/02/05 00:27:21;;;;;;;18.07;9.83;;;4.40;99.90;;;5.18;100.00;100139.97;5044406;28;20503;-80
2023/02/05 00:29:51;;;;;;;21.30;9.70;;;4.40;99.90;;;5.20;100.00;100148.50;5042116;28;20944;-80
2023/02/05 00:32:20;;;;;;;26.07;10.90;;;4.40;99.90;;;5.15;100.00;100144.53;5042401;28;20544;-80
2023/02/05 00:34:49;;;;;;;21.00;9.47;;;4.30;99.90;;;5.20;100.00;100138.13;5045638;28;20540;-80
2023/02/05 00:37:19;;;;;;;21.50;9.90;;;4.40;99.90;;;5.23;100.00;100132.75;5042934;28;20994;-80
2023/02/05 00:39:50;;;;;;;17.30;9.80;;;4.50;99.90;;;5.23;100.00;100132.75;5041888;28;20470;-80
2023/02/05 00:42:19;;;;;;;21.13;10.30;;;4.40;99.90;;;5.25;100.00;100127.44;5042916;28;20483;-80
2023/02/05 00:44:49;;;;;;;18.73;8.97;;;4.40;99.90;;;5.24;100.00;100129.19;5041353;28;20474;-80
2023/02/05 00:47:18;;;;;;;21.60;9.93;;;4.40;99.90;;;5.25;100.00;100123.09;5042097;28;20592;-80
2023/02/05 00:49:48;;;;;;;20.30;10.97;;;4.40;99.90;;;5.25;100.00;100123.09;5042675;28;20461;-80
2023/02/05 00:52:18;;;;;;;21.43;9.10;;;4.40;99.90;;;5.24;100.00;100134.38;5044183;28;20568;-80
2023/02/05 00:54:47;;;;;;;23.93;10.30;;;4.40;99.90;;;5.19;100.00;100120.06;5042222;28;20987;-80
2023/02/05 00:57:23;;;;;;;29.43;11.77;;;4.30;99.90;;;5.20;100.00;100117.38;5043779;28;20469;-80
2023/02/05 00:59:53;;;;;;;22.90;10.20;;;4.40;99.90;;;5.24;100.00;100111.03;5041946;28;20469;-80
2023/02/05 01:02:24;;;;;;;25.43;10.07;;;4.50;99.90;;;5.23;100.00;100112.00;5042264;28;20462;-80
2023/02/05 01:04:54;;;;;;;16.63;9.70;;;4.50;99.90;;;5.25;100.00;100110.13;5042263;28;20476;-79
2023/02/05 01:07:24;;;;;;;23.70;9.60;;;4.50;99.90;;;5.27;100.00;100103.09;5042277;28;20489;-80
2023/02/05 01:09:53;;;;;;;24.73;9.47;;;4.50;99.90;;;5.21;100.00;100105.22;5043472;28;20807;-80
2023/02/05 01:12:25;;;;;;;18.23;8.57;;;4.40;99.90;;;5.16;100.00;100095.19;5042691;28;20587;-79
2023/02/05 01:14:54;;;;;;;22.53;8.80;;;4.40;99.90;;;5.15;100.00;100087.50;5041630;28;20473;-80
2023/02/05 01:17:24;;;;;;;25.77;8.87;;;4.40;99.90;;;5.17;100.00;100081.28;5041192;28;20472;-80
2023/02/05 01:19:54;;;;;;;17.93;9.23;;;4.40;99.90;;;5.17;100.00;100081.28;5042947;28;20545;-79
2023/02/05 01:22:23;;;;;;;15.43;8.93;;;4.40;99.90;;;5.20;100.00;100083.69;5039801;28;20465;-80
2023/02/05 01:24:53;;;;;;;16.80;8.20;;;4.40;99.90;;;5.20;100.00;100091.47;5043769;28;20994;-80
2023/02/05 01:27:24;;;;;;;13.67;8.30;;;4.40;99.90;;;5.24;100.00;100090.28;5045101;28;20489;-79
2023/02/05 01:29:53;;;;;;;20.43;9.50;;;4.50;99.90;;;5.27;100.00;100084.94;5044800;28;20492;-79
2023/02/05 01:32:23;;;;;;;22.27;9.50;;;4.60;99.90;;;5.25;100.00;100078.16;5043229;28;20548;-80
2023/02/05 01:34:53;;;;;;;17.63;9.60;;;4.50;99.90;;;5.26;100.00;100078.06;5045027;28;20901;-80
2023/02/05 01:37:22;;;;;;;16.77;8.40;;;4.50;99.90;;;5.29;100.00;100077.84;5043541;28;20473;-80
2023/02/05 01:39:51;;;;;;;19.13;9.50;;;4.60;99.90;;;5.27;100.00;100071.97;5045452;28;20469;-80
2023/02/05 01:42:26;;;;;;;18.20;9.60;;;4.50;99.90;;;5.27;100.00;100061.59;5047214;28;20864;-79
2023/02/05 01:45:50;;;;;;;16.00;8.97;;;4.50;99.90;;;5.30;100.00;100057.94;5044542;28;21063;-80
2023/02/05 01:48:27;;;;;;;17.40;9.50;;;4.50;99.90;;;5.29;100.00;100058.88;5046053;28;20548;-80
2023/02/05 01:51:04;;;;;;;20.17;8.10;;;4.60;99.90;;;5.31;100.00;100052.63;5045660;28;20461;-80
2023/02/05 01:53:36;;;;;;;20.33;8.40;;;4.50;99.90;;;5.28;100.00;100058.03;5045996;28;20465;-80
2023/02/05 01:56:10;;;;;;;30.47;9.47;;;4.50;99.90;;;5.27;100.00;100063.34;5045276;28;20547;-80
2023/02/05 01:58:49;;;;;;;13.70;8.00;;;4.50;99.90;;;5.24;100.00;100061.75;5044673;28;20556;-80
2023/02/05 02:01:18;;;;;;;27.50;9.57;;;4.40;99.90;;;5.24;100.00;100061.75;5044982;28;20464;-80
2023/02/05 02:03:50;;;;;;;20.70;9.30;;;4.40;99.90;;;5.26;100.00;100064.28;5045160;28;20989;-79
2023/02/05 02:06:20;;;;;;;20.60;9.20;;;4.40;99.90;;;5.26;100.00;100064.28;5044808;28;20472;-80
2023/02/05 02:08:49;;;;;;;22.13;9.50;;;4.40;99.90;;;5.27;100.00;100066.78;5045866;28;20549;-80
2023/02/05 02:11:23;;;;;;;20.70;8.33;;;4.50;99.90;;;5.29;100.00;100064.06;5045750;28;20485;-80
2023/02/05 02:13:59;;;;;;;16.73;9.53;;;4.50;99.90;;;5.30;100.00;100055.34;5044788;28;20456;-80
2023/02/05 02:16:30;;;;;;;29.77;8.57;;;4.50;99.90;;;5.30;100.00;100061.38;5044468;28;20464;-80
2023/02/05 02:19:01;;;;;;;11.40;7.77;;;4.50;99.90;;;5.31;100.00;100054.44;5044569;28;20461;-80
2023/02/05 02:22:11;;;;;;;18.87;8.50;;;4.50;99.90;;;5.33;100.00;100035.22;5045092;28;20963;-80
2023/02/05 02:25:32;;;;;;;17.27;8.13;;;4.60;99.90;;;5.33;100.00;100021.41;5046528;28;20464;-80
2023/02/05 02:28:11;;;;;;;25.03;8.87;;;4.60;99.90;;;5.33;100.00;100004.09;5044186;28;21273;-80
2023/02/05 02:30:49;;;;;;;16.20;8.90;;;4.60;99.90;;;5.35;100.00;100006.56;5044683;28;20452;-80
2023/02/05 02:33:27;;;;;;;16.63;9.53;;;4.80;99.90;;;5.33;100.00;100006.69;5045198;28;20468;-80
2023/02/05 02:36:08;;;;;;;19.30;7.60;;;4.80;99.90;;;5.29;100.00;100014.78;5043703;28;21395;-80
2023/02/05 02:38:44;;;;;;;14.13;7.77;;;4.70;99.90;;;5.25;100.00;100021.94;5043090;28;20466;-80
2023/02/05 02:41:22;;;;;;;20.10;8.30;;;4.50;99.90;;;5.26;100.00;100021.00;5044467;28;20603;-80
2023/02/05 02:43:58;;;;;;;20.27;7.13;;;4.60;99.90;;;5.29;100.00;100015.63;5044659;28;21023;-80
2023/02/05 02:46:36;;;;;;;18.50;7.77;;;4.60;99.90;;;5.29;100.00;100017.38;5045574;28;20565;-81
2023/02/05 02:49:12;;;;;;;25.60;8.40;;;4.50;99.90;;;5.30;100.00;100013.84;5043885;28;20469;-80
2023/02/05 02:51:44;;;;;;;12.77;8.17;;;4.50;99.90;;;5.28;100.00;100008.75;5042834;28;21043;-80
2023/02/05 02:54:18;;;;;;;20.87;7.53;;;4.60;99.90;;;5.24;100.00;100004.72;5044386;28;21156;-80
2023/02/05 02:56:51;;;;;;;22.47;8.27;;;4.50;99.90;;;5.27;100.00;99993.31;5043991;28;20506;-80
2023/02/05 02:59:26;;;;;;;18.57;7.20;;;4.50;99.90;;;5.30;100.00;99988.75;5042912;28;20946;-80
2023/02/05 03:02:03;;;;;;;15.67;7.27;;;4.60;99.90;;;5.32;100.00;99988.63;5043973;28;20471;-79
2023/02/05 03:04:39;;;;;;;13.70;7.30;;;4.60;99.90;;;5.33;100.00;99990.31;5043934;28;20467;-80
2023/02/05 03:07:17;;;;;;;19.03;7.80;;;4.60;99.90;;;5.33;100.00;99988.53;5043151;28;20488;-80
2023/02/05 03:09:57;;;;;;;18.50;6.87;;;4.50;99.90;;;5.24;100.00;99996.94;5044539;28;20530;-80
2023/02/05 03:12:27;;;;;;;16.30;7.73;;;4.40;99.90;;;5.25;100.00;100003.78;5040645;28;20484;-80
2023/02/05 03:14:59;;;;;;;16.87;7.40;;;4.50;99.90;;;5.24;100.00;100004.72;5042553;28;20553;-80
2023/02/05 03:17:30;;;;;;;14.33;7.47;;;4.50;99.90;;;5.25;100.00;100003.78;5043265;28;20470;-80
2023/02/05 03:20:09;;;;;;;14.93;8.50;;;4.50;99.90;;;5.27;100.00;99988.97;5044000;28;20469;-80
2023/02/05 03:22:40;;;;;;;17.37;6.87;;;4.60;99.90;;;5.25;100.00;99984.81;5043078;28;20469;-80
2023/02/05 03:25:11;;;;;;;17.30;8.53;;;4.50;99.90;;;5.23;100.00;99977.16;5043913;28;20505;-80
2023/02/05 03:27:41;;;;;;;16.87;7.70;;;4.50;99.90;;;5.22;100.00;99983.25;5043427;28;20501;-80
2023/02/05 03:30:13;;;;;;;18.00;7.37;;;4.50;99.90;;;5.26;100.00;99987.31;5045770;28;20465;-80
2023/02/05 03:33:01;;;;;;;14.60;6.80;;;4.50;99.90;;;5.29;100.00;99971.53;5044729;28;20466;-80
2023/02/05 03:35:41;;;;;;;17.43;7.97;;;4.50;99.90;;;5.30;100.00;99972.38;5042230;28;21233;-80
2023/02/05 03:38:29;;;;;;;14.57;8.30;;;4.50;99.90;;;5.31;100.00;99974.84;5043970;28;20496;-80
2023/02/05 03:41:14;;;;;;;14.60;8.77;;;4.60;99.90;;;5.31;100.00;99979.22;5044871;28;20461;-80
2023/02/05 03:43:59;;;;;;;18.07;6.63;;;4.60;99.90;;;5.32;100.00;99980.84;5041763;28;21012;-80
2023/02/05 03:46:41;;;;;;;12.97;7.20;;;4.60;99.90;;;5.30;100.00;99993.09;5043968;28;20456;-80
2023/02/05 03:49:23;;;;;;;20.37;7.30;;;4.50;99.90;;;5.23;100.00;100000.47;5047765;28;20527;-80
2023/02/05 03:52:04;;;;;;;16.87;6.83;;;4.50;99.90;;;5.22;100.00;99998.81;5046503;28;20467;-80
2023/02/05 03:54:40;;;;;;;12.77;6.47;;;4.40;99.90;;;5.18;100.00;99997.38;5047038;28;20971;-80
2023/02/05 03:57:20;;;;;;;14.33;7.60;;;4.40;99.90;;;5.23;100.00;100008.25;5047336;28;20547;-79
2023/02/05 03:59:51;;;;;;;17.40;7.70;;;4.40;99.90;;;5.27;100.00;99998.50;5046252;28;20902;-80
2023/02/05 04:02:22;;;;;;;13.27;7.37;;;4.50;99.90;;;5.25;100.00;100006.38;5048013;28;20491;-80
2023/02/05 04:04:53;;;;;;;9.83;6.47;;;4.60;99.90;;;5.24;100.00;100001.31;5046644;28;20498;-80
2023/02/05 04:07:23;;;;;;;23.20;7.40;;;4.50;99.90;;;5.27;100.00;99999.34;5048303;28;20484;-80
2023/02/05 04:09:53;;;;;;;12.47;7.13;;;4.60;99.90;;;5.30;100.00;100000.88;5047655;28;20468;-80
2023/02/05 04:12:23;;;;;;;20.70;7.50;;;4.60;99.90;;;5.29;100.00;99996.63;5048304;28;20468;-82
2023/02/05 04:14:53;;;;;;;18.33;6.63;;;4.60;99.90;;;5.33;100.00;100004.09;5046925;28;20566;-80
2023/02/05 04:17:23;;;;;;;16.50;7.30;;;4.70;99.90;;;5.35;100.00;100006.56;5044676;28;20465;-76
2023/02/05 04:19:53;;;;;;;18.70;7.40;;;4.80;99.90;;;5.35;100.00;100014.34;5043282;28;21039;-80
2023/02/05 04:22:27;;;;;;;20.60;7.67;;;4.60;99.90;;;5.35;100.00;100010.00;5041666;28;20469;-80
2023/02/05 04:24:57;;;;;;;15.90;7.23;;;4.60;99.90;;;5.37;100.00;100004.72;5040184;28;20472;-80
2023/02/05 04:27:28;;;;;;;13.47;6.70;;;4.60;99.90;;;5.38;100.00;100004.59;5040960;28;20482;-80
2023/02/05 04:29:58;;;;;;;14.10;7.33;;;4.60;99.90;;;5.36;100.00;99998.69;5040091;28;20851;-80
2023/02/05 04:32:28;;;;;;;24.30;7.27;;;4.50;99.90;;;5.37;100.00;99989.16;5040273;28;20477;-80
2023/02/05 04:34:59;;;;;;;13.73;7.70;;;4.60;99.90;;;5.35;100.00;99975.44;5042961;28;20475;-80
2023/02/05 04:37:28;;;;;;;17.30;7.43;;;4.60;99.90;;;5.34;100.00;99968.63;5042802;28;20586;-80
2023/02/05 04:39:58;;;;;;;12.87;6.87;;;4.60;99.90;;;5.31;100.00;99969.66;5044378;28;20678;-80
2023/02/05 04:42:27;;;;;;;19.73;7.13;;;4.60;99.90;;;5.35;100.00;99967.66;5038279;28;20547;-79
2023/02/05 04:44:56;;;;;;;21.13;7.97;;;4.60;99.90;;;5.38;100.00;99970.88;5042151;28;20469;-80
2023/02/05 04:47:26;;;;;;;11.90;6.97;;;4.60;99.90;;;5.40;100.00;99983.75;5039392;28;20460;-80
2023/02/05 04:49:57;;;;;;;12.90;6.67;;;4.60;99.90;;;5.40;100.00;99982.00;5041222;28;20965;-79
2023/02/05 04:52:26;;;;;;;10.10;6.13;;;4.70;99.90;;;5.43;100.00;99989.56;5043200;28;20465;-80
2023/02/05 04:54:57;;;;;;;18.70;6.40;;;4.70;99.90;;;5.44;100.00;99996.41;5042508;28;20550;-80
2023/02/05 04:57:25;;;;;;;12.27;6.03;;;4.80;99.90;;;5.44;100.00;99990.41;5041619;28;20466;-85
2023/02/05 04:59:55;;;;;;;10.30;6.10;;;4.70;99.90;;;5.43;100.00;99989.56;5038340;28;20476;-77
2023/02/05 05:02:24;;;;;;;7.90;5.40;;;4.70;99.90;;;5.44;100.00;100001.59;5040868;28;20495;-78
2023/02/05 05:04:54;;;;;;;9.30;5.87;;;4.70;99.90;;;5.44;100.00;100003.38;5039646;28;20983;-77
2023/02/05 05:07:26;;;;;;;22.03;7.07;;;4.70;99.90;;;5.45;100.00;100007.59;5043650;28;20501;-77
2023/02/05 05:09:56;;;;;;;13.47;7.43;;;4.70;99.90;;;5.43;100.00;99999.09;5045154;28;20466;-77
2023/02/05 05:12:26;;;;;;;18.57;6.30;;;4.70;99.90;;;5.40;100.00;100002.75;5046911;28;20487;-77
2023/02/05 05:14:55;;;;;;;15.07;6.27;;;4.60;99.90;;;5.39;100.00;99992.47;5045660;28;20465;-77
2023/02/05 05:17:25;;;;;;;11.80;5.80;;;4.60;99.90;;;5.42;100.00;100000.88;5045431;28;20474;-78
2023/02/05 05:19:55;;;;;;;13.10;6.50;;;4.80;99.90;;;5.41;100.00;100001.81;5043241;28;20476;-78
2023/02/05 05:22:26;;;;;;;14.50;6.93;;;4.70;99.90;;;5.42;100.00;100005.22;5044093;28;20472;-78
2023/02/05 05:24:55;;;;;;;20.33;6.80;;;4.80;99.90;;;5.40;100.00;99992.38;5045474;28;20453;-78
2023/02/05 05:27:26;;;;;;;26.23;6.07;;;4.70;99.90;;;5.40;100.00;99988.94;5042729;28;20586;-78
2023/02/05 05:29:54;;;;;;;11.70;6.70;;;4.70;99.90;;;5.42;100.00;99997.44;5041643;28;20504;-78
2023/02/05 05:32:25;;;;;;;22.27;7.23;;;4.70;99.90;;;5.43;100.00;99999.94;5040680;28;20503;-77
2023/02/05 05:34:55;;;;;;;17.87;7.37;;;4.70;99.90;;;5.42;100.00;100000.03;5041331;28;20518;-77
2023/02/05 05:37:27;;;;;;;11.83;6.80;;;4.70;99.90;;;5.41;100.00;99999.22;5041756;28;20457;-77
2023/02/05 05:45:31;;;;;;;17.73;6.37;;;4.60;99.90;;;5.41;100.00;100004.41;5043659;28;21361;-77
2023/02/05 05:48:02;;;;;;;16.60;7.53;;;4.70;99.90;;;5.39;100.00;100008.03;5043059;28;20465;-78
2023/02/05 05:50:32;;;;;;;20.50;7.70;;;4.70;99.90;;;5.37;100.00;100008.16;5039491;28;20461;-78
2023/02/05 05:53:04;;;;;;;9.20;5.43;;;4.70;99.90;;;5.42;100.00;100011.25;5040117;28;20464;-78
2023/02/05 05:55:34;;;;;;;12.77;7.10;;;4.80;99.90;;;5.43;100.00;100007.72;5036601;28;20464;-78
2023/02/05 05:58:04;;;;;;;15.07;6.30;;;4.70;99.90;;;5.40;100.00;99994.97;5040506;28;20467;-78
2023/02/05 06:00:36;;;;;;;13.13;6.33;;;4.70;99.90;;;5.41;100.00;99995.78;5040314;28;20466;-78
2023/02/05 06:03:06;;;;;;;14.93;6.60;;;4.70;99.90;;;5.44;100.00;99996.41;5040857;28;20475;-78
2023/02/05 06:05:36;;;;;;;11.47;6.57;;;4.80;99.90;;;5.44;100.00;99995.59;5039937;28;20552;-78
2023/02/05 06:08:08;;;;;;;11.30;5.57;;;4.70;99.90;;;5.42;100.00;99987.91;5040275;28;20536;-78
2023/02/05 06:10:38;;;;;;;11.13;5.60;;;4.70;99.90;;;5.45;100.00;99984.25;5040872;28;20886;-78
2023/02/05 06:13:08;;;;;;;11.53;6.03;;;4.80;99.90;;;5.44;100.00;99980.84;5040977;28;20525;-78
2023/02/05 06:15:37;;;;;;;13.80;6.90;;;4.80;99.90;;;5.42;100.00;99972.31;5037433;28;20485;-81
2023/02/05 06:18:07;;;;;;;16.30;5.90;;;4.70;99.90;;;5.45;100.00;99977.28;5040687;28;20828;-79
2023/02/05 06:20:36;;;;;;;14.10;6.50;;;4.80;99.90;;;5.44;100.00;99980.84;5040170;28;20468;-74
2023/02/05 06:23:07;;;;;;;12.50;6.23;;;4.80;99.90;;;5.43;100.00;99975.75;5037924;28;20937;-78
2023/02/05 06:25:36;;;;;;;19.03;5.80;;;4.70;99.90;;;5.40;100.00;99974.22;5040154;28;20543;-78
2023/02/05 06:28:05;;;;;;;12.93;6.33;;;4.60;99.90;;;5.39;100.00;99972.53;5041155;28;20520;-79
2023/02/05 06:30:36;;;;;;;11.47;5.93;;;4.60;99.90;;;5.40;100.00;99974.22;5038838;28;20496;-79
2023/02/05 06:33:06;;;;;;;10.50;6.13;;;4.60;99.90;;;5.40;100.00;99961.25;5038856;28;20457;-78
2023/02/05 06:35:34;;;;;;;17.87;6.67;;;4.70;99.90;;;5.35;100.00;99971.09;5036541;28;20543;-79
2023/02/05 06:38:05;;;;;;;14.07;6.73;;;4.60;99.90;;;5.34;100.00;99966.88;5041073;28;20874;-78
2023/02/05 06:40:36;;;;;;;16.47;6.50;;;4.60;99.90;;;5.38;100.00;99970.88;5039735;28;20500;-78
2023/02/05 06:43:06;;;;;;;21.03;6.30;;;4.60;99.90;;;5.29;100.00;99966.34;5040992;28;20465;-78
2023/02/05 06:45:36;;;;;;;9.20;6.07;;;4.60;99.90;;;5.29;100.00;99974.13;5040246;28;20477;-78
2023/02/05 06:48:05;;;;;;;9.47;6.10;;;4.50;99.90;;;5.25;100.00;99969.25;5039647;28;20477;-79
2023/02/05 06:50:35;;;;;;;10.20;5.77;;;4.50;99.90;;;5.30;100.00;99978.38;5039202;28;20503;-78
2023/02/05 06:53:04;;;;;;;11.87;5.83;;;4.50;99.90;;;5.32;100.00;99968.72;5040096;28;21126;-78
2023/02/05 06:55:37;;;;;;;9.37;6.00;;;4.60;99.90;;;5.34;100.00;99966.88;5039290;28;20845;-78
2023/02/05 06:58:07;;;;;;;12.73;6.20;;;4.60;99.90;;;5.35;100.00;99965.91;5042399;28;20532;-75
2023/02/05 07:00:37;;;;;;;12.17;6.63;;;4.60;99.90;;;5.33;100.00;99967.78;5038638;28;20473;-79
2023/02/05 07:03:06;;;;;;;14.93;7.30;;;4.60;99.90;;;5.33;100.00;99970.38;5040614;28;20488;-78
2023/02/05 07:05:36;;;;;;;17.37;6.77;;;4.60;99.90;;;5.31;100.00;99980.03;5039706;28;20484;-77
2023/02/05 07:08:07;;;;;;;12.07;5.83;;;4.60;99.90;;;5.34;100.00;99977.25;5037959;28;20457;-77
2023/02/05 07:10:38;;;;;;;14.50;6.30;;;4.60;99.90;;;5.34;100.00;99974.66;5038232;28;20500;-77
2023/02/05 07:13:09;;;;;;;12.50;6.53;;;4.60;99.90;;;5.35;100.00;99984.06;5040275;28;20458;-77
2023/02/05 07:15:38;;;;;;;15.63;7.87;;;4.60;99.90;;;5.37;100.00;99974.44;5037972;28;20527;-78
2023/02/05 07:18:07;;;;;;;18.33;8.63;;;4.60;99.90;;;5.35;100.00;99976.28;5038170;28;20555;-78
2023/02/05 07:20:38;;;;;;;16.57;6.63;;;4.60;99.90;;;5.35;100.00;99981.47;5040475;28;20457;-78
2023/02/05 07:23:08;;;;;;;18.13;7.23;;;4.60;99.90;;;5.39;100.00;99971.72;5039898;28;20468;-74
2023/02/05 07:25:38;;;;;;;17.73;7.43;;;4.70;99.90;;;5.38;100.00;99976.06;5038154;28;21333;-78
2023/02/05 07:28:09;;;;;;;12.23;5.77;;;4.60;99.90;;;5.38;100.00;99970.06;5040055;28;20485;-77
2023/02/05 07:30:39;;;;;;;9.57;5.80;;;4.60;99.90;;;5.40;100.00;99971.63;5038668;28;20588;-77
2023/02/05 07:33:08;;;;;;;9.97;6.10;;;4.60;99.90;;;5.42;100.00;99971.50;5041049;28;20470;-77
2023/02/05 07:35:39;;;;;;;13.47;8.33;;;4.70;99.90;;;5.37;100.00;99971.84;5039014;28;20474;-77
2023/02/05 07:38:09;;;;;;;12.47;7.20;;;4.60;99.90;;;5.37;100.00;99971.84;5038426;28;20570;-77
2023/02/05 07:40:41;;;;;;;13.30;6.73;;;4.60;99.90;;;5.41;100.00;99968.09;5036913;28;20470;-77
2023/02/05 07:43:10;;;;;;;10.33;6.47;;;4.70;99.90;;;5.45;100.00;99977.28;5040445;28;20461;-77
2023/02/05 07:45:40;;;;;;;11.80;5.60;;;4.80;99.90;;;5.47;100.00;99969.44;5040907;28;20560;-73
2023/02/05 07:48:08;;;;;;;14.30;6.30;;;4.80;99.90;;;5.48;100.00;99969.31;5040711;28;20461;-77
2023/02/05 07:50:38;;;;;;;18.40;7.37;;;4.80;99.90;;;5.51;100.00;99955.31;5040229;28;20983;-77
2023/02/05 07:53:07;;;;;;;8.70;5.70;;;4.80;99.90;;;5.52;100.00;99950.00;5038836;28;20456;-73
2023/02/05 07:55:39;;;;;;;13.13;7.37;;;4.90;99.90;;;5.51;100.00;99950.94;5041551;28;20467;-77
2023/02/05 07:58:07;;;;;;;13.03;7.40;;;4.80;99.90;;;5.54;100.00;99963.69;5038915;28;20450;-78
2023/02/05 08:00:37;;;;;;;10.73;5.97;;;4.80;99.90;;;5.53;100.00;99975.00;5043733;28;20494;-77
2023/02/05 08:03:07;;;;;;;18.13;7.47;;;4.80;99.90;;;5.56;100.00;99974.78;5040917;28;20453;-77
2023/02/05 08:05:37;;;;;;;11.83;6.53;;;4.80;99.90;;;5.55;100.00;99970.53;5044853;28;20473;-78
2023/02/05 08:08:07;;;;;;;11.13;6.63;;;4.90;99.90;;;5.56;100.00;99973.97;5043733;28;20500;-77
2023/02/05 08:10:37;;;;;;;11.63;6.40;;;4.80;99.90;;;5.57;100.00;99971.25;5043274;28;20612;-77
2023/02/05 08:13:08;;;;;;;10.77;6.50;;;4.80;99.90;;;5.61;100.00;99974.47;5044598;28;20449;-77
2023/02/05 08:15:39;;;;;;;12.67;6.37;;;4.80;99.90;;;5.59;100.00;99973.75;5041305;28;20979;-77
2023/02/05 08:18:08;;;;;;;17.03;7.53;;;4.90;99.90;;;5.61;100.00;99960.66;5045013;28;20471;-77
2023/02/05 08:20:37;;;;;;;11.13;6.90;;;4.90;99.90;;;5.65;100.00;99965.53;5044366;28;20469;-77
2023/02/05 08:23:07;;;;;;;16.83;6.73;;;5.00;99.90;;;5.66;100.00;99958.59;5047690;28;20452;-79
2023/02/05 08:25:38;;;;;;;15.53;6.90;;;5.00;99.90;;;5.69;100.00;99961.81;5038252;28;20900;-77
2023/02/05 08:28:09;;;;;;;15.10;7.20;;;5.00;99.90;;;5.72;100.00;99961.56;5040818;28;20488;-77
2023/02/05 08:30:40;;;;;;;14.20;6.10;;;5.10;99.90;;;5.75;100.00;99963.13;5040247;28;20575;-77
2023/02/05 08:33:10;;;;;;;13.60;6.77;;;5.10;99.90;;;5.77;100.00;99962.06;5044308;28;20465;-77
2023/02/05 08:35:38;;;;;;;12.87;6.93;;;5.10;99.90;;;5.79;100.00;99969.75;5043930;28;20616;-77
2023/02/05 08:38:08;;;;;;;13.73;7.63;;;5.20;99.90;;;5.82;100.00;99959.16;5045902;28;20470;-77
2023/02/05 08:40:38;;;;;;;13.93;7.47;;;5.20;99.90;;;5.84;100.00;99965.03;5047752;28;21147;-77
2023/02/05 08:43:10;;;;;;;13.20;6.73;;;5.20;99.90;;;5.84;100.00;99962.44;5042422;28;20506;-77
2023/02/05 08:45:39;;;;;;;17.27;7.97;;;5.20;99.90;;;5.83;100.00;99950.44;5046947;28;20499;-77
2023/02/05 08:48:09;;;;;;;13.57;6.90;;;5.10;99.90;;;5.85;100.00;99956.31;5045951;28;20461;-77
2023/02/05 08:50:39;;;;;;;13.87;6.60;;;5.10;99.90;;;5.89;100.00;99945.66;5045605;28;20505;-77
2023/02/05 08:53:08;;;;;;;16.07;7.60;;;5.20;99.90;;;5.92;100.00;99944.59;5046405;28;20500;-77
2023/02/05 08:55:38;;;;;;;14.97;7.60;;;5.20;99.90;;;5.95;100.00;99945.22;5044756;28;20469;-77
2023/02/05 08:58:08;;;;;;;11.87;6.33;;;5.30;99.90;;;5.99;100.00;99938.03;5048390;28;20501;-77
2023/02/05 09:00:38;;;;;;;16.07;7.30;;;5.30;99.90;;;6.02;100.00;99940.41;5049361;28;20450;-77
2023/02/05 09:03:09;;;;;;;16.43;7.37;;;5.40;99.90;;;6.05;100.00;99946.19;5048380;28;20523;-78
2023/02/05 09:05:40;;;;;;;12.70;7.43;;;5.40;99.90;;;6.08;100.00;99938.19;5044213;28;20468;-77
2023/02/05 09:08:09;;;;;;;11.37;7.10;;;5.40;99.90;;;6.11;100.00;99933.72;5045382;28;20515;-77
2023/02/05 09:10:40;;;;;;;18.30;7.90;;;5.40;99.90;;;6.14;100.00;99934.31;5045849;28;20500;-77
2023/02/05 09:13:11;;;;;;;15.60;7.50;;;5.50;99.90;;;6.17;100.00;99938.44;5045596;28;20874;-77
2023/02/05 09:15:44;;;;;;;13.93;7.03;;;5.50;99.90;;;6.19;100.00;99932.19;5045618;28;20484;-78
2023/02/05 09:18:17;;;;;;;20.03;8.50;;;5.50;99.90;;;6.22;100.00;99938.94;5046507;28;20460;-77
2023/02/05 09:20:49;;;;;;;11.63;8.13;;;5.50;99.90;;;6.24;100.00;99930.09;5045234;28;20477;-77
2023/02/05 09:23:20;;;;;;;19.13;8.00;;;5.60;99.90;;;6.27;100.00;99929.88;5045529;28;20466;-77
2023/02/05 09:25:49;;;;;;;15.83;8.33;;;5.60;99.90;;;6.28;100.00;99926.31;5046844;28;20556;-78
2023/02/05 09:28:21;;;;;;;17.97;8.13;;;5.60;99.90;;;6.29;100.00;99933.19;5044087;28;20461;-77
2023/02/05 09:30:51;;;;;;;15.80;8.23;;;5.60;99.90;;;6.33;100.00;99932.00;5044372;28;20584;-77
2023/02/05 09:33:21;;;;;;;17.57;8.67;;;5.60;99.90;;;6.35;100.00;99916.31;5041926;28;20523;-77
2023/02/05 09:35:50;;;;;;;11.40;7.13;;;5.70;99.90;;;6.37;100.00;99920.47;5044726;28;20554;-77
2023/02/05 09:38:20;;;;;;;17.30;7.40;;;5.70;99.90;;;6.41;100.00;99916.69;5046284;28;20457;-78
2023/02/05 09:41:01;;;;;;;15.10;7.90;;;5.70;99.90;;;6.43;100.00;99914.78;5042582;28;20569;-77
2023/02/05 09:43:46;;;;;;;10.57;6.93;;;5.80;99.90;;;6.45;100.00;99912.94;5046978;28;20543;-77
2023/02/05 09:46:31;;;;;;;16.37;7.50;;;5.90;99.90;;;6.47;100.00;99920.59;5045504;28;20467;-77
2023/02/05 09:49:13;;;;;;;9.60;6.67;;;5.90;99.90;;;6.49;100.00;99916.13;5044051;28;20964;-78
2023/02/05 09:51:47;;;;;;;11.90;7.83;;;6.00;99.90;;;6.52;100.00;99918.50;5041789;28;20499;-77
2023/02/05 09:54:25;;;;;;;16.93;7.73;;;6.00;99.90;;;6.53;100.00;99907.97;5042230;28;20964;-77
2023/02/05 09:57:00;;;;;;;17.20;8.00;;;6.00;99.90;;;6.55;100.00;99908.69;5048378;28;20466;-77
2023/02/05 09:59:34;;;;;;;11.57;6.90;;;6.00;99.90;;;6.58;100.00;99912.81;5044913;28;20457;-77
2023/02/05 10:02:22;;;;;;;15.13;5.63;;;6.00;99.90;;;6.59;100.00;99910.09;5044140;28;20473;-77
2023/02/05 10:04:54;;;;;;;9.63;6.00;;;6.10;99.90;;;6.58;100.00;99900.66;5045565;28;20462;-77
2023/02/05 10:07:36;;;;;;;10.20;5.80;;;6.10;99.90;;;6.61;100.00;99903.97;5042279;28;20551;-77
2023/02/05 10:10:28;;;;;;;8.93;6.10;;;6.10;99.90;;;6.57;100.00;99901.59;5042996;28;20460;-77
2023/02/05 10:13:30;;;;;;;10.63;6.03;;;6.00;99.90;;;6.63;100.00;99904.69;5044568;28;20453;-77
2023/02/05 10:17:14;;;;;;;11.10;5.70;;;6.10;99.90;;;6.65;100.00;99892.41;5040328;28;20465;-77
2023/02/05 10:20:25;;;;;;;9.70;5.70;;;6.20;99.90;;;6.68;100.00;99897.34;5027509;28;20469;-78
2023/02/05 10:23:15;;;;;;;6.93;5.33;;;6.30;99.90;;;6.67;100.00;99895.69;5019613;28;20489;-77
2023/02/05 10:26:04;;;;;;;6.90;5.00;;;6.20;99.90;;;6.65;100.00;99889.78;5043980;28;20474;-77
2023/02/05 10:29:18;;;;;;;6.40;4.73;;;6.10;99.90;;;6.64;100.00;99885.53;5042037;28;20560;-77
2023/02/05 10:32:09;;;;;;;6.60;4.40;;;6.20;99.90;;;6.67;100.00;99872.28;5042844;28;20540;-77
2023/02/05 10:34:55;;;;;;;8.13;4.97;;;6.20;99.90;;;6.70;100.00;99865.09;5041563;28;20464;-78
2023/02/05 10:37:38;;;;;;;9.43;5.07;;;6.20;99.90;;;6.73;100.00;99853.66;5041721;28;21133;-78
2023/02/05 10:40:15;;;;;;;12.70;6.77;;;6.30;99.90;;;6.78;100.00;99861.91;5037949;28;20446;-77
2023/02/05 10:42:50;;;;;;;9.67;4.57;;;6.30;99.90;;;6.80;100.00;99855.66;5037967;28;20510;-77
2023/02/05 10:45:25;;;;;;;7.70;4.53;;;6.40;99.90;;;6.83;100.00;99855.44;5041220;28;20458;-77
2023/02/05 10:48:25;;;;;;;9.03;5.37;;;6.40;99.90;;;6.86;100.00;99856.97;5040331;28;20519;-77
2023/02/05 10:51:00;;;;;;;7.23;5.10;;;6.40;99.90;;;6.88;100.00;99855.06;5038502;28;20528;-77